createdAt,value
2017-06-28T00:00:04.645Z,0
2017-06-28T00:00:30.773Z,0
2017-06-28T00:00:56.909Z,0
2017-06-28T00:01:22.990Z,0
2017-06-28T00:01:49.136Z,0
2017-06-28T00:02:15.278Z,0
2017-06-28T00:02:41.370Z,0
2017-06-28T00:03:07.539Z,0
2017-06-28T00:03:33.637Z,0
2017-06-28T00:03:59.814Z,0
2017-06-28T00:04:25.948Z,0
2017-06-28T00:04:52.061Z,0
2017-06-28T00:05:18.186Z,0
2017-06-28T00:05:44.319Z,0
2017-06-28T00:06:10.410Z,0
2017-06-28T00:06:36.536Z,0
2017-06-28T00:07:02.697Z,0
2017-06-28T00:07:28.841Z,0
2017-06-28T00:07:54.930Z,0
2017-06-28T00:08:21.041Z,0
2017-06-28T00:08:47.238Z,0
2017-06-28T00:09:13.366Z,0
2017-06-28T00:09:39.511Z,0
2017-06-28T00:10:05.655Z,0
2017-06-28T00:10:31.787Z,0
2017-06-28T00:10:57.933Z,0
2017-06-28T00:11:24.073Z,0
2017-06-28T00:11:50.183Z,0
2017-06-28T00:12:16.280Z,0
2017-06-28T00:12:42.370Z,0
2017-06-28T00:13:08.557Z,0
2017-06-28T00:13:34.739Z,0
2017-06-28T00:14:00.831Z,0
2017-06-28T00:14:26.986Z,0
2017-06-28T00:14:53.129Z,0
2017-06-28T00:15:19.294Z,0
2017-06-28T00:15:45.392Z,0
2017-06-28T00:16:11.509Z,0
2017-06-28T00:16:37.637Z,0
2017-06-28T00:17:03.765Z,0
2017-06-28T00:17:29.904Z,0
2017-06-28T00:17:56.031Z,0
2017-06-28T00:18:22.164Z,0
2017-06-28T00:18:48.278Z,0
2017-06-28T00:19:14.380Z,0
2017-06-28T00:19:40.540Z,0
2017-06-28T00:20:06.656Z,0
2017-06-28T00:20:32.752Z,0
2017-06-28T00:20:58.860Z,0
2017-06-28T00:21:24.952Z,0
2017-06-28T00:21:51.040Z,0
2017-06-28T00:22:17.200Z,0
2017-06-28T00:22:43.292Z,0
2017-06-28T00:23:09.383Z,0
2017-06-28T00:23:35.492Z,0
2017-06-28T00:24:01.589Z,0
2017-06-28T00:24:27.703Z,0
2017-06-28T00:24:53.858Z,0
2017-06-28T00:25:19.964Z,0
2017-06-28T00:25:46.058Z,0
2017-06-28T00:26:12.178Z,0
2017-06-28T00:26:38.271Z,0
2017-06-28T00:27:04.376Z,0
2017-06-28T00:27:30.502Z,0
2017-06-28T00:27:56.617Z,0
2017-06-28T00:28:22.748Z,0
2017-06-28T00:28:48.882Z,0
2017-06-28T00:29:14.966Z,0
2017-06-28T00:29:41.117Z,0
2017-06-28T00:30:07.252Z,0
2017-06-28T00:30:33.364Z,0
2017-06-28T00:30:59.534Z,0
2017-06-28T00:31:25.686Z,0
2017-06-28T00:31:51.789Z,0
2017-06-28T00:32:17.893Z,0
2017-06-28T00:32:44.005Z,0
2017-06-28T00:33:10.155Z,0
2017-06-28T00:33:36.287Z,0
2017-06-28T00:34:02.398Z,0
2017-06-28T00:34:28.569Z,0
2017-06-28T00:34:54.730Z,0
2017-06-28T00:35:20.824Z,0
2017-06-28T00:35:46.939Z,0
2017-06-28T00:36:13.049Z,0
2017-06-28T00:36:39.145Z,0
2017-06-28T00:37:05.248Z,0
2017-06-28T00:37:31.338Z,0
2017-06-28T00:37:57.460Z,0
2017-06-28T00:38:23.622Z,0
2017-06-28T00:38:49.744Z,0
2017-06-28T00:39:15.860Z,0
2017-06-28T00:39:42.023Z,0
2017-06-28T00:40:08.226Z,0
2017-06-28T00:40:34.339Z,0
2017-06-28T00:41:00.446Z,0
2017-06-28T00:41:26.545Z,0
2017-06-28T00:41:52.659Z,0
2017-06-28T00:42:18.761Z,0
2017-06-28T00:42:44.879Z,0
2017-06-28T00:43:11.016Z,0
2017-06-28T00:43:37.163Z,0
2017-06-28T00:44:03.279Z,0
2017-06-28T00:44:29.464Z,0
2017-06-28T00:44:55.620Z,0
2017-06-28T00:45:21.737Z,0
2017-06-28T00:45:47.919Z,0
2017-06-28T00:46:14.025Z,0
2017-06-28T00:46:40.112Z,0
2017-06-28T00:47:06.212Z,0
2017-06-28T00:47:32.375Z,0
2017-06-28T00:47:58.516Z,0
2017-06-28T00:48:24.697Z,0
2017-06-28T00:48:50.863Z,0
2017-06-28T00:49:16.991Z,0
2017-06-28T00:49:43.120Z,0
2017-06-28T00:50:09.233Z,0
2017-06-28T00:50:35.355Z,0
2017-06-28T00:51:01.493Z,0
2017-06-28T00:51:27.612Z,0
2017-06-28T00:51:53.707Z,0
2017-06-28T00:52:19.871Z,0
2017-06-28T00:52:45.963Z,0
2017-06-28T00:53:12.076Z,0
2017-06-28T00:53:38.232Z,0
2017-06-28T00:54:04.333Z,0
2017-06-28T00:54:30.438Z,0
2017-06-28T00:54:56.582Z,0
2017-06-28T00:55:22.725Z,0
2017-06-28T00:55:48.887Z,0
2017-06-28T00:56:15.058Z,0
2017-06-28T00:56:41.171Z,0
2017-06-28T00:57:07.338Z,0
2017-06-28T00:57:33.491Z,0
2017-06-28T00:57:59.653Z,0
2017-06-28T00:58:25.811Z,0
2017-06-28T00:58:51.964Z,0
2017-06-28T00:59:18.113Z,0
2017-06-28T00:59:44.257Z,0
2017-06-28T01:00:10.372Z,0
2017-06-28T01:00:36.483Z,0
2017-06-28T01:01:02.607Z,0
2017-06-28T01:01:28.723Z,0
2017-06-28T01:01:54.824Z,0
2017-06-28T01:02:20.950Z,0
2017-06-28T01:02:47.065Z,0
2017-06-28T01:03:13.167Z,0
2017-06-28T01:03:39.301Z,0
2017-06-28T01:04:05.390Z,0
2017-06-28T01:04:31.494Z,0
2017-06-28T01:04:57.622Z,0
2017-06-28T01:05:23.738Z,0
2017-06-28T01:05:49.836Z,0
2017-06-28T01:06:15.969Z,0
2017-06-28T01:06:42.115Z,0
2017-06-28T01:07:08.228Z,0
2017-06-28T01:07:34.367Z,0
2017-06-28T01:08:00.541Z,0
2017-06-28T01:08:26.658Z,0
2017-06-28T01:08:52.787Z,0
2017-06-28T01:09:18.969Z,0
2017-06-28T01:09:45.057Z,0
2017-06-28T01:10:11.185Z,0
2017-06-28T01:10:37.305Z,0
2017-06-28T01:11:03.467Z,0
2017-06-28T01:11:29.564Z,0
2017-06-28T01:11:55.704Z,0
2017-06-28T01:12:21.839Z,0
2017-06-28T01:12:47.966Z,0
2017-06-28T01:13:14.081Z,0
2017-06-28T01:13:40.185Z,0
2017-06-28T01:14:06.401Z,0
2017-06-28T01:14:32.562Z,0
2017-06-28T01:14:58.710Z,0
2017-06-28T01:15:24.816Z,0
2017-06-28T01:15:50.934Z,0
2017-06-28T01:16:17.064Z,0
2017-06-28T01:16:43.154Z,0
2017-06-28T01:17:09.258Z,0
2017-06-28T01:17:35.391Z,0
2017-06-28T01:18:01.479Z,0
2017-06-28T01:18:27.578Z,0
2017-06-28T01:18:53.685Z,0
2017-06-28T01:19:19.775Z,0
2017-06-28T01:19:45.871Z,0
2017-06-28T01:20:11.977Z,0
2017-06-28T01:20:38.071Z,0
2017-06-28T01:21:04.161Z,0
2017-06-28T01:21:30.263Z,0
2017-06-28T01:21:56.390Z,0
2017-06-28T01:22:22.498Z,0
2017-06-28T01:22:48.589Z,0
2017-06-28T01:23:14.710Z,0
2017-06-28T01:23:40.816Z,0
2017-06-28T01:24:06.988Z,0
2017-06-28T01:24:33.128Z,0
2017-06-28T01:24:59.286Z,0
2017-06-28T01:25:25.408Z,0
2017-06-28T01:25:51.511Z,0
2017-06-28T01:26:17.643Z,0
2017-06-28T01:26:43.742Z,0
2017-06-28T01:27:09.843Z,0
2017-06-28T01:27:35.964Z,0
2017-06-28T01:28:02.078Z,0
2017-06-28T01:28:28.273Z,0
2017-06-28T01:28:54.423Z,0
2017-06-28T01:29:20.595Z,0
2017-06-28T01:29:46.744Z,0
2017-06-28T01:30:12.844Z,0
2017-06-28T01:30:38.934Z,0
2017-06-28T01:31:05.087Z,0
2017-06-28T01:31:31.193Z,0
2017-06-28T01:31:57.279Z,0
2017-06-28T01:32:23.406Z,0
2017-06-28T01:32:49.525Z,0
2017-06-28T01:33:15.657Z,0
2017-06-28T01:33:41.786Z,0
2017-06-28T01:34:07.897Z,0
2017-06-28T01:34:34.025Z,0
2017-06-28T01:35:00.157Z,0
2017-06-28T01:35:26.245Z,0
2017-06-28T01:35:52.368Z,0
2017-06-28T01:36:18.476Z,0
2017-06-28T01:36:44.592Z,0
2017-06-28T01:37:10.691Z,0
2017-06-28T01:37:36.824Z,0
2017-06-28T01:38:02.967Z,0
2017-06-28T01:38:29.127Z,0
2017-06-28T01:38:55.290Z,0
2017-06-28T01:39:21.389Z,0
2017-06-28T01:39:47.521Z,0
2017-06-28T01:40:13.613Z,0
2017-06-28T01:40:39.734Z,0
2017-06-28T01:41:05.839Z,0
2017-06-28T01:41:31.984Z,0
2017-06-28T01:41:58.101Z,0
2017-06-28T01:42:24.211Z,0
2017-06-28T01:42:50.333Z,0
2017-06-28T01:43:16.422Z,0
2017-06-28T01:43:42.581Z,0
2017-06-28T01:44:08.726Z,0
2017-06-28T01:44:34.861Z,0
2017-06-28T01:45:00.980Z,0
2017-06-28T01:45:27.071Z,0
2017-06-28T01:45:53.208Z,0
2017-06-28T01:46:19.305Z,0
2017-06-28T01:46:45.397Z,0
2017-06-28T01:47:11.504Z,0
2017-06-28T01:47:37.630Z,0
2017-06-28T01:48:03.768Z,0
2017-06-28T01:48:29.896Z,0
2017-06-28T01:48:56.031Z,0
2017-06-28T01:49:22.169Z,0
2017-06-28T01:49:48.393Z,0
2017-06-28T01:50:14.555Z,0
2017-06-28T01:50:40.674Z,0
2017-06-28T01:51:06.794Z,0
2017-06-28T01:51:32.927Z,0
2017-06-28T01:51:59.043Z,0
2017-06-28T01:52:25.135Z,0
2017-06-28T01:52:51.273Z,0
2017-06-28T01:53:17.395Z,0
2017-06-28T01:53:43.513Z,0
2017-06-28T01:54:09.672Z,0
2017-06-28T01:54:35.855Z,0
2017-06-28T01:55:02.006Z,0
2017-06-28T01:55:28.101Z,0
2017-06-28T01:55:54.240Z,0
2017-06-28T01:56:20.378Z,0
2017-06-28T01:56:46.475Z,0
2017-06-28T01:57:12.567Z,0
2017-06-28T01:57:38.698Z,0
2017-06-28T01:58:04.880Z,0
2017-06-28T01:58:31.019Z,0
2017-06-28T01:58:57.120Z,0
2017-06-28T01:59:23.281Z,0
2017-06-28T01:59:49.368Z,0
2017-06-28T02:00:15.469Z,0
2017-06-28T02:00:41.616Z,0
2017-06-28T02:01:07.751Z,0
2017-06-28T02:01:33.851Z,0
2017-06-28T02:01:59.940Z,0
2017-06-28T02:02:26.093Z,0
2017-06-28T02:02:52.226Z,0
2017-06-28T02:03:18.363Z,0
2017-06-28T02:03:44.512Z,0
2017-06-28T02:04:10.675Z,0
2017-06-28T02:04:36.873Z,0
2017-06-28T02:05:03.017Z,0
2017-06-28T02:05:29.149Z,0
2017-06-28T02:05:55.271Z,0
2017-06-28T02:06:21.406Z,0
2017-06-28T02:06:47.543Z,0
2017-06-28T02:07:13.642Z,0
2017-06-28T02:07:39.750Z,0
2017-06-28T02:08:05.867Z,0
2017-06-28T02:08:32.038Z,0
2017-06-28T02:08:58.202Z,0
2017-06-28T02:09:24.348Z,0
2017-06-28T02:09:50.787Z,0
2017-06-28T02:10:16.922Z,0
2017-06-28T02:10:43.022Z,0
2017-06-28T02:11:09.135Z,0
2017-06-28T02:11:35.294Z,0
2017-06-28T02:12:01.388Z,0
2017-06-28T02:12:27.525Z,0
2017-06-28T02:12:53.697Z,0
2017-06-28T02:13:19.789Z,0
2017-06-28T02:13:45.900Z,0
2017-06-28T02:14:12.023Z,0
2017-06-28T02:14:38.164Z,0
2017-06-28T02:15:04.296Z,0
2017-06-28T02:15:30.396Z,0
2017-06-28T02:15:56.486Z,0
2017-06-28T02:16:22.589Z,0
2017-06-28T02:16:48.721Z,0
2017-06-28T02:17:14.816Z,0
2017-06-28T02:17:40.993Z,0
2017-06-28T02:18:07.111Z,0
2017-06-28T02:18:33.265Z,0
2017-06-28T02:18:59.393Z,0
2017-06-28T02:19:25.533Z,0
2017-06-28T02:19:51.684Z,0
2017-06-28T02:20:17.819Z,0
2017-06-28T02:20:43.931Z,0
2017-06-28T02:21:10.056Z,0
2017-06-28T02:21:36.188Z,0
2017-06-28T02:22:02.304Z,0
2017-06-28T02:22:28.401Z,0
2017-06-28T02:22:54.524Z,0
2017-06-28T02:23:20.653Z,0
2017-06-28T02:23:46.817Z,0
2017-06-28T02:24:12.930Z,0
2017-06-28T02:24:39.078Z,0
2017-06-28T02:25:05.184Z,0
2017-06-28T02:25:31.275Z,0
2017-06-28T02:25:57.394Z,0
2017-06-28T02:26:23.527Z,0
2017-06-28T02:26:49.627Z,0
2017-06-28T02:27:15.737Z,0
2017-06-28T02:27:41.870Z,0
2017-06-28T02:28:07.967Z,0
2017-06-28T02:28:34.094Z,0
2017-06-28T02:29:00.209Z,0
2017-06-28T02:29:26.330Z,0
2017-06-28T02:29:52.434Z,0
2017-06-28T02:30:18.553Z,0
2017-06-28T02:30:44.669Z,0
2017-06-28T02:31:10.777Z,0
2017-06-28T02:31:36.872Z,0
2017-06-28T02:32:02.960Z,0
2017-06-28T02:32:29.172Z,0
2017-06-28T02:32:55.272Z,0
2017-06-28T02:33:21.413Z,0
2017-06-28T02:33:47.593Z,0
2017-06-28T02:34:13.727Z,0
2017-06-28T02:34:39.814Z,0
2017-06-28T02:35:05.966Z,0
2017-06-28T02:35:32.102Z,0
2017-06-28T02:35:58.215Z,0
2017-06-28T02:36:24.342Z,0
2017-06-28T02:36:50.475Z,0
2017-06-28T02:37:16.699Z,0
2017-06-28T02:37:42.863Z,0
2017-06-28T02:38:08.978Z,0
2017-06-28T02:38:35.107Z,0
2017-06-28T02:39:01.237Z,0
2017-06-28T02:39:27.343Z,0
2017-06-28T02:39:53.460Z,0
2017-06-28T02:40:19.618Z,0
2017-06-28T02:40:45.710Z,0
2017-06-28T02:41:11.828Z,0
2017-06-28T02:41:37.938Z,0
2017-06-28T02:42:04.034Z,0
2017-06-28T02:42:30.124Z,0
2017-06-28T02:42:56.231Z,0
2017-06-28T02:43:22.356Z,0
2017-06-28T02:43:48.446Z,0
2017-06-28T02:44:14.577Z,0
2017-06-28T02:44:40.716Z,0
2017-06-28T02:45:06.805Z,0
2017-06-28T02:45:32.930Z,0
2017-06-28T02:45:59.047Z,0
2017-06-28T02:46:25.153Z,0
2017-06-28T02:46:51.279Z,0
2017-06-28T02:47:17.395Z,0
2017-06-28T02:47:43.499Z,0
2017-06-28T02:48:09.661Z,0
2017-06-28T02:48:35.800Z,0
2017-06-28T02:49:01.977Z,0
2017-06-28T02:49:28.139Z,0
2017-06-28T02:49:54.306Z,0
2017-06-28T02:50:20.402Z,0
2017-06-28T02:50:46.502Z,0
2017-06-28T02:51:12.659Z,0
2017-06-28T02:51:38.792Z,0
2017-06-28T02:52:04.878Z,0
2017-06-28T02:52:31.002Z,0
2017-06-28T02:52:57.162Z,0
2017-06-28T02:53:23.253Z,0
2017-06-28T02:53:49.449Z,0
2017-06-28T02:54:15.555Z,0
2017-06-28T02:54:41.675Z,0
2017-06-28T02:55:07.789Z,0
2017-06-28T02:55:33.898Z,0
2017-06-28T02:55:59.994Z,0
2017-06-28T02:56:26.119Z,0
2017-06-28T02:56:52.207Z,0
2017-06-28T02:57:18.331Z,0
2017-06-28T02:57:44.467Z,0
2017-06-28T02:58:10.587Z,0
2017-06-28T02:58:36.703Z,0
2017-06-28T02:59:02.896Z,0
2017-06-28T02:59:29.045Z,0
2017-06-28T02:59:55.210Z,0
2017-06-28T03:00:21.339Z,0
2017-06-28T03:00:47.465Z,0
2017-06-28T03:01:13.580Z,0
2017-06-28T03:01:39.682Z,0
2017-06-28T03:02:05.799Z,0
2017-06-28T03:02:31.909Z,0
2017-06-28T03:02:58.063Z,0
2017-06-28T03:03:24.227Z,0
2017-06-28T03:03:50.413Z,0
2017-06-28T03:04:16.511Z,0
2017-06-28T03:04:42.625Z,0
2017-06-28T03:05:08.752Z,0
2017-06-28T03:05:34.941Z,0
2017-06-28T03:06:01.052Z,0
2017-06-28T03:06:27.176Z,0
2017-06-28T03:06:53.309Z,0
2017-06-28T03:07:19.453Z,0
2017-06-28T03:07:45.584Z,0
2017-06-28T03:08:11.697Z,0
2017-06-28T03:08:37.799Z,0
2017-06-28T03:09:03.936Z,0
2017-06-28T03:09:30.023Z,0
2017-06-28T03:09:56.122Z,0
2017-06-28T03:10:22.228Z,0
2017-06-28T03:10:48.317Z,0
2017-06-28T03:11:14.412Z,0
2017-06-28T03:11:40.519Z,5
2017-06-28T03:12:06.612Z,5
2017-06-28T03:12:32.729Z,5
2017-06-28T03:12:58.861Z,5
2017-06-28T03:13:25.031Z,5
2017-06-28T03:13:51.193Z,5
2017-06-28T03:14:17.365Z,5
2017-06-28T03:14:43.560Z,5
2017-06-28T03:15:09.694Z,5
2017-06-28T03:15:35.785Z,5
2017-06-28T03:16:01.901Z,5
2017-06-28T03:16:28.037Z,5
2017-06-28T03:16:54.134Z,5
2017-06-28T03:17:20.247Z,5
2017-06-28T03:17:46.356Z,5
2017-06-28T03:18:12.538Z,5
2017-06-28T03:18:38.652Z,5
2017-06-28T03:19:04.778Z,5
2017-06-28T03:19:30.967Z,5
2017-06-28T03:19:57.079Z,5
2017-06-28T03:20:23.180Z,5
2017-06-28T03:20:49.316Z,5
2017-06-28T03:21:15.434Z,5
2017-06-28T03:21:41.533Z,5
2017-06-28T03:22:07.636Z,5
2017-06-28T03:22:33.729Z,10
2017-06-28T03:22:59.819Z,10
2017-06-28T03:23:25.978Z,10
2017-06-28T03:23:52.102Z,10
2017-06-28T03:24:18.228Z,10
2017-06-28T03:24:44.321Z,10
2017-06-28T03:25:10.465Z,10
2017-06-28T03:25:36.571Z,10
2017-06-28T03:26:02.663Z,10
2017-06-28T03:26:28.753Z,10
2017-06-28T03:26:54.889Z,10
2017-06-28T03:27:20.985Z,10
2017-06-28T03:27:47.124Z,10
2017-06-28T03:28:13.308Z,10
2017-06-28T03:28:39.432Z,10
2017-06-28T03:29:05.573Z,10
2017-06-28T03:29:31.733Z,10
2017-06-28T03:29:57.876Z,10
2017-06-28T03:30:24.010Z,10
2017-06-28T03:30:50.133Z,15
2017-06-28T03:31:16.221Z,15
2017-06-28T03:31:42.329Z,15
2017-06-28T03:32:08.458Z,15
2017-06-28T03:32:34.571Z,15
2017-06-28T03:33:00.698Z,15
2017-06-28T03:33:26.835Z,15
2017-06-28T03:33:53.003Z,15
2017-06-28T03:34:19.153Z,15
2017-06-28T03:34:45.287Z,15
2017-06-28T03:35:11.378Z,15
2017-06-28T03:35:37.481Z,15
2017-06-28T03:36:03.594Z,15
2017-06-28T03:36:29.697Z,15
2017-06-28T03:36:55.829Z,15
2017-06-28T03:37:21.940Z,15
2017-06-28T03:37:48.041Z,15
2017-06-28T03:38:14.230Z,15
2017-06-28T03:38:40.344Z,15
2017-06-28T03:39:06.441Z,20
2017-06-28T03:39:32.574Z,20
2017-06-28T03:39:58.667Z,20
2017-06-28T03:40:24.780Z,20
2017-06-28T03:40:51.209Z,20
2017-06-28T03:41:17.335Z,20
2017-06-28T03:41:43.442Z,20
2017-06-28T03:42:09.588Z,15
2017-06-28T03:42:35.686Z,15
2017-06-28T03:43:01.791Z,15
2017-06-28T03:43:27.889Z,15
2017-06-28T03:43:53.976Z,15
2017-06-28T03:44:20.142Z,15
2017-06-28T03:44:46.263Z,15
2017-06-28T03:45:12.404Z,15
2017-06-28T03:45:38.536Z,15
2017-06-28T03:46:04.663Z,10
2017-06-28T03:46:30.763Z,10
2017-06-28T03:46:56.858Z,10
2017-06-28T03:47:22.975Z,10
2017-06-28T03:47:49.164Z,10
2017-06-28T03:48:15.288Z,10
2017-06-28T03:48:41.423Z,10
2017-06-28T03:49:07.556Z,10
2017-06-28T03:49:33.769Z,10
2017-06-28T03:49:59.935Z,10
2017-06-28T03:50:26.039Z,10
2017-06-28T03:50:52.173Z,10
2017-06-28T03:51:18.259Z,10
2017-06-28T03:51:44.358Z,10
2017-06-28T03:52:10.479Z,10
2017-06-28T03:52:36.632Z,10
2017-06-28T03:53:02.761Z,10
2017-06-28T03:53:28.852Z,10
2017-06-28T03:53:55.008Z,10
2017-06-28T03:54:21.172Z,15
2017-06-28T03:54:47.310Z,15
2017-06-28T03:55:13.436Z,15
2017-06-28T03:55:39.542Z,15
2017-06-28T03:56:05.661Z,15
2017-06-28T03:56:31.783Z,20
2017-06-28T03:56:57.913Z,20
2017-06-28T03:57:24.086Z,15
2017-06-28T03:57:50.240Z,15
2017-06-28T03:58:16.376Z,15
2017-06-28T03:58:42.501Z,15
2017-06-28T03:59:08.666Z,15
2017-06-28T03:59:34.807Z,15
2017-06-28T04:00:00.904Z,15
2017-06-28T04:00:27.037Z,15
2017-06-28T04:00:53.133Z,15
2017-06-28T04:01:19.223Z,15
2017-06-28T04:01:45.333Z,15
2017-06-28T04:02:11.457Z,15
2017-06-28T04:02:37.570Z,15
2017-06-28T04:03:03.756Z,15
2017-06-28T04:03:29.938Z,15
2017-06-28T04:03:56.026Z,15
2017-06-28T04:04:22.209Z,15
2017-06-28T04:04:48.344Z,15
2017-06-28T04:05:14.432Z,15
2017-06-28T04:05:40.532Z,20
2017-06-28T04:06:06.639Z,20
2017-06-28T04:06:32.729Z,20
2017-06-28T04:06:58.849Z,20
2017-06-28T04:07:24.956Z,20
2017-06-28T04:07:51.048Z,20
2017-06-28T04:08:17.164Z,25
2017-06-28T04:08:43.324Z,25
2017-06-28T04:09:09.452Z,25
2017-06-28T04:09:35.642Z,25
2017-06-28T04:10:01.733Z,25
2017-06-28T04:10:27.830Z,25
2017-06-28T04:10:53.964Z,25
2017-06-28T04:11:20.080Z,25
2017-06-28T04:11:46.195Z,25
2017-06-28T04:12:12.332Z,25
2017-06-28T04:12:38.430Z,25
2017-06-28T04:13:04.594Z,30
2017-06-28T04:13:30.702Z,30
2017-06-28T04:13:56.885Z,30
2017-06-28T04:14:23.039Z,30
2017-06-28T04:14:49.159Z,30
2017-06-28T04:15:15.274Z,30
2017-06-28T04:15:41.437Z,30
2017-06-28T04:16:07.589Z,30
2017-06-28T04:16:33.679Z,30
2017-06-28T04:16:59.815Z,30
2017-06-28T04:17:25.943Z,30
2017-06-28T04:17:52.058Z,35
2017-06-28T04:18:18.218Z,35
2017-06-28T04:18:44.378Z,35
2017-06-28T04:19:10.468Z,40
2017-06-28T04:19:36.568Z,40
2017-06-28T04:20:02.663Z,45
2017-06-28T04:20:28.771Z,45
2017-06-28T04:20:54.898Z,50
2017-06-28T04:21:20.990Z,55
2017-06-28T04:21:47.118Z,55
2017-06-28T04:22:13.224Z,60
2017-06-28T04:22:39.312Z,65
2017-06-28T04:23:05.413Z,70
2017-06-28T04:23:31.548Z,75
2017-06-28T04:23:57.691Z,75
2017-06-28T04:24:23.863Z,80
2017-06-28T04:24:49.997Z,80
2017-06-28T04:25:16.092Z,80
2017-06-28T04:25:42.198Z,85
2017-06-28T04:26:08.312Z,90
2017-06-28T04:26:34.412Z,90
2017-06-28T04:27:00.573Z,95
2017-06-28T04:27:26.636Z,100
2017-06-28T04:27:52.758Z,100
2017-06-28T04:28:18.948Z,100
2017-06-28T04:28:45.117Z,105
2017-06-28T04:29:11.256Z,105
2017-06-28T04:29:37.450Z,105
2017-06-28T04:30:03.574Z,105
2017-06-28T04:30:29.687Z,105
2017-06-28T04:30:55.820Z,105
2017-06-28T04:31:21.916Z,105
2017-06-28T04:31:48.079Z,105
2017-06-28T04:32:14.219Z,105
2017-06-28T04:32:40.382Z,105
2017-06-28T04:33:06.491Z,105
2017-06-28T04:33:32.611Z,105
2017-06-28T04:33:58.730Z,100
2017-06-28T04:34:24.864Z,100
2017-06-28T04:34:50.966Z,100
2017-06-28T04:35:17.058Z,100
2017-06-28T04:35:43.161Z,100
2017-06-28T04:36:09.269Z,100
2017-06-28T04:36:35.364Z,100
2017-06-28T04:37:01.512Z,100
2017-06-28T04:37:27.602Z,100
2017-06-28T04:37:53.765Z,100
2017-06-28T04:38:19.947Z,100
2017-06-28T04:38:46.062Z,100
2017-06-28T04:39:12.189Z,100
2017-06-28T04:39:38.406Z,100
2017-06-28T04:40:04.520Z,100
2017-06-28T04:40:30.622Z,100
2017-06-28T04:40:56.811Z,100
2017-06-28T04:41:22.929Z,100
2017-06-28T04:41:49.050Z,95
2017-06-28T04:42:15.173Z,95
2017-06-28T04:42:41.356Z,90
2017-06-28T04:43:07.465Z,85
2017-06-28T04:43:33.581Z,85
2017-06-28T04:43:59.709Z,85
2017-06-28T04:44:25.871Z,90
2017-06-28T04:44:51.989Z,90
2017-06-28T04:45:18.113Z,90
2017-06-28T04:45:44.246Z,95
2017-06-28T04:46:10.341Z,100
2017-06-28T04:46:36.458Z,100
2017-06-28T04:47:02.598Z,105
2017-06-28T04:47:28.695Z,105
2017-06-28T04:47:54.835Z,110
2017-06-28T04:48:20.971Z,110
2017-06-28T04:48:47.101Z,115
2017-06-28T04:49:13.220Z,115
2017-06-28T04:49:39.370Z,115
2017-06-28T04:50:05.505Z,120
2017-06-28T04:50:31.592Z,120
2017-06-28T04:50:57.716Z,120
2017-06-28T04:51:23.824Z,120
2017-06-28T04:51:49.916Z,120
2017-06-28T04:52:16.040Z,115
2017-06-28T04:52:42.146Z,115
2017-06-28T04:53:08.291Z,110
2017-06-28T04:53:34.478Z,110
2017-06-28T04:54:00.586Z,105
2017-06-28T04:54:26.738Z,105
2017-06-28T04:54:52.874Z,105
2017-06-28T04:55:18.989Z,100
2017-06-28T04:55:45.086Z,100
2017-06-28T04:56:11.248Z,100
2017-06-28T04:56:37.365Z,100
2017-06-28T04:57:03.455Z,100
2017-06-28T04:57:29.594Z,105
2017-06-28T04:57:55.691Z,105
2017-06-28T04:58:21.783Z,110
2017-06-28T04:58:47.969Z,115
2017-06-28T04:59:14.113Z,115
2017-06-28T04:59:40.277Z,115
2017-06-28T05:00:06.393Z,115
2017-06-28T05:00:32.512Z,115
2017-06-28T05:00:58.672Z,115
2017-06-28T05:01:24.773Z,110
2017-06-28T05:01:50.907Z,110
2017-06-28T05:02:17.014Z,105
2017-06-28T05:02:43.144Z,105
2017-06-28T05:03:09.259Z,100
2017-06-28T05:03:35.361Z,100
2017-06-28T05:04:01.469Z,100
2017-06-28T05:04:27.585Z,100
2017-06-28T05:04:53.710Z,100
2017-06-28T05:05:19.824Z,100
2017-06-28T05:05:45.983Z,100
2017-06-28T05:06:12.112Z,100
2017-06-28T05:06:38.202Z,100
2017-06-28T05:07:04.333Z,100
2017-06-28T05:07:30.467Z,95
2017-06-28T05:07:56.556Z,95
2017-06-28T05:08:22.683Z,90
2017-06-28T05:08:48.873Z,90
2017-06-28T05:09:14.989Z,85
2017-06-28T05:09:41.110Z,85
2017-06-28T05:10:07.246Z,80
2017-06-28T05:10:33.342Z,80
2017-06-28T05:10:59.481Z,80
2017-06-28T05:11:25.590Z,75
2017-06-28T05:11:51.685Z,75
2017-06-28T05:12:17.778Z,75
2017-06-28T05:12:43.885Z,70
2017-06-28T05:13:10.071Z,70
2017-06-28T05:13:36.236Z,65
2017-06-28T05:14:02.392Z,65
2017-06-28T05:14:28.499Z,65
2017-06-28T05:14:54.613Z,60
2017-06-28T05:15:20.739Z,60
2017-06-28T05:15:46.837Z,60
2017-06-28T05:16:12.965Z,60
2017-06-28T05:16:39.066Z,60
2017-06-28T05:17:05.182Z,60
2017-06-28T05:17:31.310Z,65
2017-06-28T05:17:57.442Z,65
2017-06-28T05:18:23.579Z,70
2017-06-28T05:18:49.756Z,70
2017-06-28T05:19:15.930Z,70
2017-06-28T05:19:42.099Z,75
2017-06-28T05:20:08.222Z,75
2017-06-28T05:20:34.382Z,75
2017-06-28T05:21:00.504Z,75
2017-06-28T05:21:26.610Z,75
2017-06-28T05:21:52.722Z,75
2017-06-28T05:22:18.821Z,75
2017-06-28T05:22:44.925Z,75
2017-06-28T05:23:11.016Z,75
2017-06-28T05:23:37.138Z,80
2017-06-28T05:24:03.327Z,80
2017-06-28T05:24:29.450Z,80
2017-06-28T05:24:55.612Z,80
2017-06-28T05:25:21.751Z,80
2017-06-28T05:25:47.901Z,80
2017-06-28T05:26:13.990Z,80
2017-06-28T05:26:40.278Z,75
2017-06-28T05:27:06.375Z,70
2017-06-28T05:27:32.511Z,65
2017-06-28T05:27:58.656Z,60
2017-06-28T05:28:24.817Z,55
2017-06-28T05:28:50.927Z,50
2017-06-28T05:29:17.081Z,45
2017-06-28T05:29:43.243Z,40
2017-06-28T05:30:09.373Z,40
2017-06-28T05:30:35.477Z,35
2017-06-28T05:31:01.589Z,35
2017-06-28T05:31:27.693Z,40
2017-06-28T05:31:53.799Z,40
2017-06-28T05:32:19.913Z,45
2017-06-28T05:32:46.015Z,45
2017-06-28T05:33:12.147Z,50
2017-06-28T05:33:38.263Z,55
2017-06-28T05:34:04.436Z,65
2017-06-28T05:34:30.570Z,70
2017-06-28T05:34:56.667Z,75
2017-06-28T05:35:22.769Z,75
2017-06-28T05:35:48.877Z,80
2017-06-28T05:36:14.974Z,80
2017-06-28T05:36:41.068Z,85
2017-06-28T05:37:07.173Z,90
2017-06-28T05:37:33.302Z,90
2017-06-28T05:37:59.428Z,95
2017-06-28T05:38:25.569Z,100
2017-06-28T05:38:51.711Z,105
2017-06-28T05:39:17.849Z,105
2017-06-28T05:39:43.973Z,110
2017-06-28T05:40:10.113Z,110
2017-06-28T05:40:36.244Z,115
2017-06-28T05:41:02.370Z,115
2017-06-28T05:41:28.485Z,115
2017-06-28T05:41:54.586Z,115
2017-06-28T05:42:20.720Z,115
2017-06-28T05:42:46.809Z,115
2017-06-28T05:43:12.935Z,115
2017-06-28T05:43:39.054Z,115
2017-06-28T05:44:05.185Z,115
2017-06-28T05:44:31.286Z,115
2017-06-28T05:44:57.426Z,110
2017-06-28T05:45:23.577Z,110
2017-06-28T05:45:49.683Z,105
2017-06-28T05:46:15.771Z,105
2017-06-28T05:46:41.873Z,100
2017-06-28T05:47:08.007Z,100
2017-06-28T05:47:34.100Z,100
2017-06-28T05:48:00.221Z,90
2017-06-28T05:48:26.353Z,85
2017-06-28T05:48:52.495Z,75
2017-06-28T05:49:18.654Z,70
2017-06-28T05:49:44.766Z,65
2017-06-28T05:50:10.915Z,65
2017-06-28T05:50:37.020Z,65
2017-06-28T05:51:03.140Z,65
2017-06-28T05:51:29.263Z,60
2017-06-28T05:51:55.393Z,60
2017-06-28T05:52:21.516Z,60
2017-06-28T05:52:47.629Z,60
2017-06-28T05:53:13.794Z,60
2017-06-28T05:53:39.999Z,60
2017-06-28T05:54:06.138Z,65
2017-06-28T05:54:32.326Z,65
2017-06-28T05:54:58.446Z,65
2017-06-28T05:55:24.552Z,65
2017-06-28T05:55:50.727Z,65
2017-06-28T05:56:16.817Z,65
2017-06-28T05:56:42.927Z,65
2017-06-28T05:57:09.050Z,65
2017-06-28T05:57:35.181Z,65
2017-06-28T05:58:01.306Z,65
2017-06-28T05:58:27.398Z,70
2017-06-28T05:58:53.487Z,70
2017-06-28T05:59:19.590Z,75
2017-06-28T05:59:45.724Z,75
2017-06-28T06:00:11.818Z,80
2017-06-28T06:00:37.914Z,80
2017-06-28T06:01:04.031Z,85
2017-06-28T06:01:30.163Z,90
2017-06-28T06:01:56.291Z,95
2017-06-28T06:02:22.408Z,100
2017-06-28T06:02:48.514Z,105
2017-06-28T06:03:14.677Z,115
2017-06-28T06:03:40.842Z,125
2017-06-28T06:04:06.997Z,130
2017-06-28T06:04:33.156Z,135
2017-06-28T06:04:59.248Z,145
2017-06-28T06:05:25.391Z,155
2017-06-28T06:05:51.568Z,165
2017-06-28T06:06:17.672Z,180
2017-06-28T06:06:43.780Z,190
2017-06-28T06:07:09.895Z,200
2017-06-28T06:07:35.996Z,215
2017-06-28T06:08:02.184Z,220
2017-06-28T06:08:28.351Z,225
2017-06-28T06:08:54.524Z,230
2017-06-28T06:09:20.716Z,230
2017-06-28T06:09:46.864Z,235
2017-06-28T06:10:12.952Z,235
2017-06-28T06:10:39.088Z,235
2017-06-28T06:11:05.211Z,240
2017-06-28T06:11:31.339Z,250
2017-06-28T06:11:57.480Z,255
2017-06-28T06:12:23.602Z,265
2017-06-28T06:12:49.736Z,270
2017-06-28T06:13:15.883Z,280
2017-06-28T06:13:42.001Z,290
2017-06-28T06:14:08.168Z,300
2017-06-28T06:14:34.321Z,305
2017-06-28T06:15:00.437Z,315
2017-06-28T06:15:26.593Z,320
2017-06-28T06:15:52.723Z,335
2017-06-28T06:16:18.815Z,340
2017-06-28T06:16:44.920Z,350
2017-06-28T06:17:11.028Z,355
2017-06-28T06:17:37.142Z,360